createdAt,value
2022-10-03T00:02:08.598Z,93.65
2022-10-03T00:04:28.984Z,93.42
2022-10-03T00:06:45.957Z,93.27
2022-10-03T00:09:04.310Z,92.14
2022-10-03T00:11:24.057Z,92.52
2022-10-03T00:13:42.005Z,92.82
2022-10-03T00:15:58.969Z,91.85
2022-10-03T00:18:15.979Z,92.11
2022-10-03T00:20:33.000Z,92.35
2022-10-03T00:22:50.248Z,92.87
2022-10-03T00:25:08.147Z,93.21
2022-10-03T00:27:25.396Z,92.53
2022-10-03T00:29:42.392Z,92.20
2022-10-03T00:31:59.904Z,91.82
2022-10-03T00:34:17.139Z,92.03
2022-10-03T00:36:34.555Z,90.97
2022-10-03T00:38:51.931Z,92.10
2022-10-03T00:41:09.000Z,91.81
2022-10-03T00:43:25.903Z,91.35
2022-10-03T00:45:42.835Z,91.53
2022-10-03T00:47:59.878Z,92.40
2022-10-03T00:50:17.148Z,91.27
2022-10-03T00:52:34.516Z,92.58
2022-10-03T00:54:51.882Z,92.82
2022-10-03T00:57:08.870Z,91.77
2022-10-03T00:59:26.164Z,91.91
2022-10-03T01:01:43.613Z,93.30
2022-10-03T01:04:00.808Z,93.01
2022-10-03T01:06:18.146Z,92.27
2022-10-03T01:08:35.150Z,93.21
2022-10-03T01:10:52.109Z,93.28
2022-10-03T01:13:09.303Z,92.75
2022-10-03T01:15:26.647Z,92.59
2022-10-03T01:17:43.873Z,92.60
2022-10-03T01:20:01.055Z,92.75
2022-10-03T01:22:18.374Z,91.75
2022-10-03T01:24:35.636Z,92.22
2022-10-03T01:26:52.919Z,91.58
2022-10-03T01:29:09.955Z,92.38
2022-10-03T01:31:27.077Z,92.11
2022-10-03T01:33:45.131Z,92.73
2022-10-03T01:36:02.089Z,92.99
2022-10-03T01:38:19.401Z,92.30
2022-10-03T01:40:36.299Z,92.35
2022-10-03T01:42:53.574Z,92.38
2022-10-03T01:45:10.504Z,93.06
2022-10-03T01:47:27.552Z,92.93
2022-10-03T01:49:45.426Z,92.77
2022-10-03T01:52:02.448Z,92.88
2022-10-03T01:54:19.444Z,93.22
2022-10-03T01:56:36.689Z,92.23
2022-10-03T01:58:53.927Z,93.27
2022-10-03T02:01:11.213Z,92.25
2022-10-03T02:03:28.323Z,91.76
2022-10-03T02:05:45.322Z,92.23
2022-10-03T02:08:03.330Z,92.43
2022-10-03T02:10:20.314Z,93.15
2022-10-03T02:12:37.331Z,92.99
2022-10-03T02:14:54.286Z,92.69
2022-10-03T02:17:11.427Z,92.67
2022-10-03T02:19:28.328Z,92.38
2022-10-03T02:21:45.295Z,92.44
2022-10-03T02:24:03.316Z,93.27
2022-10-03T02:26:20.196Z,92.91
2022-10-03T02:28:37.204Z,92.61
2022-10-03T02:30:55.021Z,91.81
2022-10-03T02:33:11.888Z,91.96
2022-10-03T02:35:28.908Z,92.15
2022-10-03T02:37:45.726Z,92.77
2022-10-03T02:40:02.775Z,92.69
2022-10-03T02:42:19.791Z,92.48
2022-10-03T02:44:37.037Z,92.81
2022-10-03T02:46:53.962Z,92.87
2022-10-03T02:49:11.350Z,92.34
2022-10-03T02:51:28.541Z,92.79
2022-10-03T02:53:45.796Z,93.39
2022-10-03T02:56:03.370Z,93.02
2022-10-03T02:58:20.414Z,93.55
2022-10-03T03:00:37.370Z,94.24
2022-10-03T03:02:54.708Z,93.68
2022-10-03T03:05:11.944Z,93.80
2022-10-03T03:07:29.144Z,93.38
2022-10-03T03:09:46.379Z,93.59
2022-10-03T03:12:03.313Z,93.63
2022-10-03T03:14:20.589Z,93.15
2022-10-03T03:16:37.618Z,92.72
2022-10-03T03:18:55.870Z,93.03
2022-10-03T03:21:12.842Z,93.16
2022-10-03T03:23:30.056Z,94.15
2022-10-03T03:25:46.961Z,93.67
2022-10-03T03:28:03.933Z,94.27
2022-10-03T03:30:21.204Z,94.04
2022-10-03T03:32:38.410Z,94.15
2022-10-03T03:34:55.753Z,94.69
2022-10-03T03:37:14.039Z,94.23
2022-10-03T03:39:31.064Z,93.75
2022-10-03T03:41:48.048Z,93.72
2022-10-03T03:44:06.302Z,94.59
2022-10-03T03:46:23.262Z,94.50
2022-10-03T03:48:40.275Z,93.86
2022-10-03T03:50:57.269Z,93.91
2022-10-03T03:53:15.154Z,94.04
2022-10-03T03:55:32.123Z,94.23
2022-10-03T03:57:49.179Z,94.44
2022-10-03T04:00:06.092Z,94.16
2022-10-03T04:02:23.341Z,93.95
2022-10-03T04:04:40.372Z,94.66
2022-10-03T04:06:57.626Z,94.08
2022-10-03T04:09:14.635Z,94.36
2022-10-03T04:11:32.874Z,94.11
2022-10-03T04:13:50.154Z,94.48
2022-10-03T04:16:08.215Z,94.11
2022-10-03T04:18:25.282Z,94.05
2022-10-03T04:20:42.312Z,93.99
2022-10-03T04:23:00.052Z,92.81
2022-10-03T04:25:17.084Z,92.61
2022-10-03T04:27:34.265Z,93.89
2022-10-03T04:29:56.493Z,93.48
2022-10-03T04:32:14.011Z,93.56
2022-10-03T04:34:32.034Z,93.88
2022-10-03T04:36:49.276Z,93.52
2022-10-03T04:39:06.508Z,94.20
2022-10-03T04:41:23.499Z,93.86
2022-10-03T04:43:41.493Z,94.49
2022-10-03T04:45:59.691Z,93.86
2022-10-03T04:48:16.961Z,93.70
2022-10-03T04:50:34.987Z,93.87
2022-10-03T04:52:51.966Z,93.74
2022-10-03T04:55:09.261Z,93.91
2022-10-03T04:57:26.263Z,93.74
2022-10-03T04:59:43.793Z,94.14
2022-10-03T05:02:01.158Z,94.14
2022-10-03T05:04:18.113Z,94.00
2022-10-03T05:06:35.144Z,94.76
2022-10-03T05:08:52.154Z,94.43
2022-10-03T05:11:09.139Z,94.80
2022-10-03T05:13:27.116Z,94.07
2022-10-03T05:15:44.115Z,94.93
2022-10-03T05:18:03.540Z,93.73
2022-10-03T05:20:20.739Z,93.87
2022-10-03T05:22:38.748Z,94.56
2022-10-03T05:24:55.660Z,94.02
2022-10-03T05:27:12.634Z,94.32
2022-10-03T05:29:29.849Z,94.94
2022-10-03T05:31:46.914Z,94.45
2022-10-03T05:34:04.335Z,94.76
2022-10-03T05:36:21.617Z,94.41
2022-10-03T05:38:38.659Z,94.20
2022-10-03T05:40:55.592Z,94.45
2022-10-03T05:43:12.508Z,95.08
2022-10-03T05:45:30.616Z,94.50
2022-10-03T05:47:47.838Z,95.27
2022-10-03T05:50:10.447Z,94.55
2022-10-03T05:52:29.791Z,94.01
2022-10-03T05:54:47.030Z,94.43
2022-10-03T05:57:04.008Z,94.26
2022-10-03T05:59:20.962Z,94.60
2022-10-03T06:01:38.228Z,93.82
2022-10-03T06:03:55.445Z,93.89
2022-10-03T06:06:12.469Z,93.83
2022-10-03T06:08:30.478Z,94.21
2022-10-03T06:10:48.631Z,94.14
2022-10-03T06:13:05.736Z,93.76
2022-10-03T06:15:23.021Z,93.72
2022-10-03T06:17:43.148Z,94.66
2022-10-03T06:20:00.452Z,93.86
2022-10-03T06:22:17.465Z,93.79
2022-10-03T06:24:34.440Z,94.07
2022-10-03T06:26:51.392Z,95.20
2022-10-03T06:29:08.670Z,94.79
2022-10-03T06:31:29.647Z,93.78
2022-10-03T06:33:50.299Z,95.11
2022-10-03T06:36:07.504Z,94.74
2022-10-03T06:38:24.417Z,94.16
2022-10-03T06:40:43.835Z,95.27
2022-10-03T06:43:02.099Z,94.33
2022-10-03T06:45:21.000Z,94.15
2022-10-03T06:47:38.030Z,95.32
2022-10-03T06:49:56.005Z,95.30
2022-10-03T06:52:13.348Z,94.93
2022-10-03T06:54:30.336Z,95.04
2022-10-03T06:56:50.158Z,94.29
2022-10-03T06:59:07.422Z,94.38
2022-10-03T07:01:24.817Z,95.42
2022-10-03T07:03:41.916Z,95.54
2022-10-03T07:05:58.808Z,94.42
2022-10-03T07:08:15.812Z,95.70
2022-10-03T07:10:33.844Z,96.01
2022-10-03T07:12:51.079Z,95.77
2022-10-03T07:15:08.035Z,94.83
2022-10-03T07:17:27.047Z,94.12
2022-10-03T07:19:43.992Z,95.09
2022-10-03T07:22:01.025Z,94.72
2022-10-03T07:24:17.847Z,94.72
2022-10-03T07:26:36.076Z,94.22
2022-10-03T07:28:52.990Z,94.99
2022-10-03T07:31:10.041Z,93.33
2022-10-03T07:33:27.434Z,93.65
2022-10-03T07:35:44.755Z,93.59
2022-10-03T07:38:02.064Z,93.37
2022-10-03T07:40:20.287Z,93.05
2022-10-03T07:42:37.323Z,93.49
2022-10-03T07:44:54.308Z,93.55
2022-10-03T07:47:11.205Z,93.57
2022-10-03T07:49:28.597Z,93.29
2022-10-03T07:51:45.827Z,92.38
2022-10-03T07:54:03.057Z,93.27
2022-10-03T07:56:20.099Z,92.69
2022-10-03T07:58:37.099Z,92.22
2022-10-03T08:00:54.108Z,92.31
2022-10-03T08:03:12.176Z,92.08
2022-10-03T08:05:29.310Z,91.30
2022-10-03T08:07:46.316Z,90.17
2022-10-03T08:10:03.557Z,90.42
2022-10-03T08:12:20.586Z,89.47
2022-10-03T08:14:37.596Z,89.92
2022-10-03T08:16:54.822Z,89.72
2022-10-03T08:19:12.948Z,90.11
2022-10-03T08:21:31.241Z,90.29
2022-10-03T08:23:48.513Z,89.72
2022-10-03T08:26:05.590Z,90.16
2022-10-03T08:28:22.882Z,90.32
2022-10-03T08:30:40.185Z,90.44
2022-10-03T08:32:58.201Z,89.87
2022-10-03T08:35:15.253Z,88.71
2022-10-03T08:37:33.144Z,87.98
2022-10-03T08:39:50.124Z,89.56
2022-10-03T08:42:07.162Z,89.54
2022-10-03T08:44:28.176Z,89.61
2022-10-03T08:46:48.373Z,89.89
2022-10-03T08:49:05.286Z,89.33
2022-10-03T08:51:24.308Z,89.68
2022-10-03T08:53:41.760Z,89.65
2022-10-03T08:56:00.103Z,89.87
2022-10-03T08:58:17.300Z,90.36
2022-10-03T09:00:35.500Z,90.68
2022-10-03T09:03:13.940Z,90.69
2022-10-03T09:05:29.970Z,90.25
2022-10-03T09:07:46.974Z,89.85
2022-10-03T09:10:04.048Z,90.72
2022-10-03T09:12:22.381Z,89.78
2022-10-03T09:14:42.148Z,90.12
2022-10-03T09:16:59.180Z,89.21
2022-10-03T09:19:16.652Z,89.15
2022-10-03T09:21:37.112Z,89.04
2022-10-03T09:23:54.256Z,88.60
2022-10-03T09:26:11.456Z,88.15
2022-10-03T09:28:29.851Z,87.63
2022-10-03T09:30:47.127Z,87.57
2022-10-03T09:33:04.371Z,88.17
2022-10-03T09:35:21.597Z,87.94
2022-10-03T09:37:38.595Z,87.05
2022-10-03T09:39:55.866Z,87.96
2022-10-03T09:42:12.920Z,86.83
2022-10-03T09:44:30.157Z,86.26
2022-10-03T09:46:47.436Z,86.08
2022-10-03T09:49:05.641Z,86.60
2022-10-03T09:51:23.787Z,86.11
2022-10-03T09:53:42.078Z,85.88
2022-10-03T09:55:59.061Z,87.17
2022-10-03T09:58:19.453Z,87.22
2022-10-03T10:00:36.728Z,87.64
2022-10-03T10:02:53.770Z,86.67
2022-10-03T10:05:11.065Z,86.62
2022-10-03T10:07:28.091Z,83.75
2022-10-03T10:09:45.300Z,86.12
2022-10-03T10:12:02.192Z,85.00
2022-10-03T10:14:19.458Z,84.36
2022-10-03T10:16:37.729Z,84.23
2022-10-03T10:18:55.071Z,81.59
2022-10-03T10:21:12.365Z,78.09
2022-10-03T10:23:30.239Z,76.43
2022-10-03T10:25:48.744Z,77.18
2022-10-03T10:28:07.099Z,73.72
2022-10-03T10:30:24.108Z,74.61
2022-10-03T10:32:41.131Z,74.12
2022-10-03T10:34:58.079Z,73.10
2022-10-03T10:37:16.278Z,72.52
2022-10-03T10:39:33.587Z,72.04
2022-10-03T10:41:50.814Z,69.84
2022-10-03T10:44:08.123Z,71.66
2022-10-03T10:46:25.406Z,72.79
2022-10-03T10:48:43.452Z,72.80
2022-10-03T10:51:00.457Z,73.33
2022-10-03T10:53:17.708Z,72.99
2022-10-03T10:55:34.529Z,70.86
2022-10-03T10:57:51.778Z,67.94
2022-10-03T11:00:08.692Z,68.43
2022-10-03T11:02:25.940Z,66.33
2022-10-03T11:04:44.166Z,66.76
2022-10-03T11:07:03.227Z,67.41
2022-10-03T11:09:20.278Z,65.95
2022-10-03T11:11:38.490Z,65.84
2022-10-03T11:13:55.533Z,69.98
2022-10-03T11:16:12.926Z,71.11
2022-10-03T11:18:29.873Z,70.51
2022-10-03T11:20:47.208Z,68.88
2022-10-03T11:23:04.934Z,66.54
2022-10-03T11:25:21.983Z,64.59
2022-10-03T11:27:39.215Z,63.94
2022-10-03T11:29:56.421Z,64.54
2022-10-03T11:32:13.433Z,64.12
2022-10-03T11:34:30.418Z,62.78
2022-10-03T11:36:48.451Z,62.24
2022-10-03T11:39:05.616Z,62.52
2022-10-03T11:41:23.587Z,61.93
2022-10-03T11:43:40.522Z,62.71
2022-10-03T11:45:57.857Z,59.52
2022-10-03T11:48:14.953Z,60.43
2022-10-03T11:50:32.002Z,61.64
2022-10-03T11:52:49.195Z,62.40
2022-10-03T11:55:07.166Z,64.38
2022-10-03T11:57:24.488Z,62.65
2022-10-03T11:59:41.497Z,63.29
2022-10-03T12:01:58.811Z,64.72
2022-10-03T12:04:16.896Z,64.74
2022-10-03T12:06:33.826Z,64.70
2022-10-03T12:08:58.499Z,63.56
2022-10-03T12:11:16.501Z,62.62
2022-10-03T12:13:34.482Z,59.54
2022-10-03T12:15:51.470Z,59.24
2022-10-03T12:18:09.490Z,57.43
2022-10-03T12:20:26.517Z,58.22
2022-10-03T12:22:43.714Z,59.60
2022-10-03T12:25:00.669Z,58.91
2022-10-03T12:27:17.652Z,58.66
2022-10-03T12:29:35.661Z,59.90
2022-10-03T12:31:52.923Z,59.74
2022-10-03T12:34:10.162Z,59.34
2022-10-03T12:36:28.387Z,57.88
2022-10-03T12:38:48.895Z,59.06
2022-10-03T12:41:08.959Z,57.74
2022-10-03T12:43:25.926Z,61.12
2022-10-03T12:45:43.024Z,59.19
2022-10-03T12:48:00.369Z,58.25
2022-10-03T12:50:19.587Z,61.14
2022-10-03T12:52:37.839Z,61.37
2022-10-03T12:54:55.126Z,59.68
2022-10-03T12:57:12.033Z,60.87
2022-10-03T12:59:30.265Z,60.04
2022-10-03T13:01:47.555Z,61.82
2022-10-03T13:04:04.891Z,60.42
2022-10-03T13:06:38.920Z,60.55
2022-10-03T13:09:00.179Z,60.53
2022-10-03T13:11:18.036Z,58.82
2022-10-03T13:13:35.324Z,60.65
2022-10-03T13:15:52.734Z,59.23
2022-10-03T13:18:09.780Z,60.26
2022-10-03T13:20:27.156Z,59.76
2022-10-03T13:22:44.204Z,62.55
2022-10-03T13:25:01.435Z,61.86
2022-10-03T13:27:18.409Z,62.24
2022-10-03T13:29:36.406Z,64.14
2022-10-03T13:31:53.296Z,64.34
2022-10-03T13:34:10.317Z,64.94
2022-10-03T13:36:29.544Z,64.53
2022-10-03T13:38:46.447Z,62.80
2022-10-03T13:41:03.482Z,62.89
2022-10-03T13:43:21.362Z,62.79
2022-10-03T13:45:38.410Z,64.36
2022-10-03T13:47:56.713Z,63.38
2022-10-03T13:50:14.634Z,64.09
2022-10-03T13:52:31.722Z,64.73
2022-10-03T13:54:48.975Z,65.34
2022-10-03T13:57:06.344Z,66.44
2022-10-03T13:59:24.326Z,66.75
2022-10-03T14:01:42.704Z,65.68
2022-10-03T14:04:00.011Z,62.84
2022-10-03T14:06:17.005Z,64.24
2022-10-03T14:08:35.096Z,67.40
2022-10-03T14:10:52.354Z,68.68
2022-10-03T14:13:11.748Z,70.56
2022-10-03T14:15:29.119Z,71.58
2022-10-03T14:17:46.205Z,72.86
2022-10-03T14:20:03.200Z,72.73
2022-10-03T14:22:20.178Z,73.30
2022-10-03T14:24:37.411Z,73.92
2022-10-03T14:26:54.465Z,72.01
2022-10-03T14:29:11.452Z,71.25
2022-10-03T14:31:28.513Z,69.96
2022-10-03T14:33:45.615Z,69.12
2022-10-03T14:36:02.800Z,68.92
2022-10-03T14:38:20.149Z,68.60
2022-10-03T14:40:37.148Z,68.31
2022-10-03T14:42:55.356Z,68.04
2022-10-03T14:45:12.313Z,67.02
2022-10-03T14:47:29.223Z,66.73
2022-10-03T14:49:56.277Z,66.78
2022-10-03T14:52:14.756Z,66.35
2022-10-03T14:54:32.806Z,64.87
2022-10-03T14:56:49.703Z,65.19
2022-10-03T14:59:06.696Z,65.56
2022-10-03T15:01:23.761Z,63.69
2022-10-03T15:03:40.801Z,63.81
2022-10-03T15:05:57.779Z,64.40
2022-10-03T15:08:14.851Z,64.63
2022-10-03T15:10:31.783Z,63.45
2022-10-03T15:12:48.717Z,64.24
2022-10-03T15:15:05.613Z,63.49
2022-10-03T15:17:22.832Z,61.86
2022-10-03T15:19:39.864Z,61.72
2022-10-03T15:21:57.161Z,59.80
2022-10-03T15:24:14.392Z,59.26
2022-10-03T15:26:31.882Z,60.51
2022-10-03T15:28:50.213Z,59.62
2022-10-03T15:31:08.356Z,59.71
2022-10-03T15:33:25.465Z,56.78
2022-10-03T15:35:42.771Z,54.91
2022-10-03T15:38:01.117Z,54.97
2022-10-03T15:40:18.049Z,54.50
2022-10-03T15:42:35.316Z,54.91
2022-10-03T15:44:52.214Z,53.68
2022-10-03T15:47:10.466Z,55.78
2022-10-03T15:49:28.500Z,54.99
2022-10-03T15:51:45.557Z,56.20
2022-10-03T15:54:03.714Z,56.76
2022-10-03T15:56:21.993Z,56.42
2022-10-03T15:58:39.260Z,58.80
2022-10-03T16:00:56.353Z,60.40
2022-10-03T16:03:13.680Z,61.00
2022-10-03T16:05:30.745Z,62.92
2022-10-03T16:07:48.070Z,63.43
2022-10-03T16:10:05.073Z,66.80
2022-10-03T16:12:22.292Z,67.00
2022-10-03T16:14:39.405Z,68.38
2022-10-03T16:16:56.982Z,70.09
2022-10-03T16:19:14.235Z,70.49
2022-10-03T16:21:32.230Z,71.41
2022-10-03T16:23:49.165Z,73.21
2022-10-03T16:26:06.465Z,72.51
2022-10-03T16:28:23.639Z,73.78
2022-10-03T16:30:40.613Z,75.11
2022-10-03T16:33:00.663Z,76.85
2022-10-03T16:35:18.702Z,76.05
2022-10-03T16:37:35.987Z,78.08
2022-10-03T16:39:52.923Z,78.29
2022-10-03T16:42:10.887Z,79.05
2022-10-03T16:44:27.962Z,79.96
2022-10-03T16:46:45.970Z,80.02
2022-10-03T16:49:03.304Z,78.89
2022-10-03T16:51:20.587Z,79.17
2022-10-03T16:53:37.830Z,80.80
2022-10-03T16:55:59.931Z,81.22
2022-10-03T16:58:17.313Z,81.39
2022-10-03T17:00:37.505Z,81.70
2022-10-03T17:02:54.583Z,82.20
2022-10-03T17:05:11.928Z,81.40
2022-10-03T17:07:28.933Z,82.12
2022-10-03T17:09:48.660Z,81.78
2022-10-03T17:12:05.696Z,82.20
2022-10-03T17:14:22.757Z,81.96
2022-10-03T17:16:39.797Z,82.19
2022-10-03T17:18:57.323Z,82.41
2022-10-03T17:21:14.234Z,82.09
2022-10-03T17:23:31.913Z,82.82
2022-10-03T17:25:50.748Z,83.49
2022-10-03T17:28:08.084Z,83.36
2022-10-03T17:30:25.553Z,83.50
2022-10-03T17:32:43.583Z,83.40
2022-10-03T17:35:00.640Z,83.17
2022-10-03T17:37:17.701Z,83.39
2022-10-03T17:39:34.993Z,83.54
2022-10-03T17:41:52.230Z,83.92
2022-10-03T17:44:09.501Z,83.87
2022-10-03T17:46:26.514Z,84.23
2022-10-03T17:48:44.291Z,84.11
2022-10-03T17:51:02.591Z,84.27
2022-10-03T17:53:19.921Z,84.25
2022-10-03T17:55:36.857Z,84.70
2022-10-03T17:57:53.908Z,84.78
2022-10-03T18:00:11.122Z,85.32
2022-10-03T18:02:28.434Z,85.08
2022-10-03T18:04:45.497Z,85.40
2022-10-03T18:07:02.797Z,85.07
2022-10-03T18:09:21.153Z,85.81
2022-10-03T18:11:40.569Z,85.64
2022-10-03T18:13:57.705Z,85.38
2022-10-03T18:16:15.789Z,85.48
2022-10-03T18:18:33.010Z,85.54
2022-10-03T18:20:51.056Z,85.49
2022-10-03T18:23:07.974Z,85.80
2022-10-03T18:25:25.699Z,85.60
2022-10-03T18:27:42.822Z,85.89
2022-10-03T18:30:00.075Z,85.33
2022-10-03T18:32:17.327Z,85.57
2022-10-03T18:34:34.357Z,85.80
2022-10-03T18:36:51.362Z,85.84
2022-10-03T18:39:08.337Z,86.19
2022-10-03T18:41:25.515Z,86.27
2022-10-03T18:43:42.778Z,86.08
2022-10-03T18:46:00.831Z,86.32
2022-10-03T18:48:17.904Z,86.91
2022-10-03T18:50:34.875Z,87.00
2022-10-03T18:52:52.113Z,87.17
2022-10-03T18:55:13.807Z,87.18
2022-10-03T18:57:32.044Z,87.46
2022-10-03T18:59:49.631Z,86.47
2022-10-03T19:02:08.050Z,86.60
2022-10-03T19:04:25.396Z,85.91
2022-10-03T19:06:42.656Z,86.33
2022-10-03T19:08:59.695Z,86.42
2022-10-03T19:11:16.900Z,86.96
2022-10-03T19:13:33.939Z,87.07
2022-10-03T19:15:50.975Z,85.72
2022-10-03T19:18:10.806Z,86.54
2022-10-03T19:20:28.262Z,86.42
2022-10-03T19:22:45.474Z,85.75
2022-10-03T19:25:02.946Z,85.51
2022-10-03T19:27:19.953Z,86.34
2022-10-03T19:29:37.184Z,87.08
2022-10-03T19:31:54.461Z,86.89
2022-10-03T19:34:11.491Z,86.16
2022-10-03T19:36:28.500Z,87.40
2022-10-03T19:38:45.422Z,87.30
2022-10-03T19:41:02.465Z,86.11
2022-10-03T19:43:20.696Z,86.36
2022-10-03T19:45:38.977Z,87.03
2022-10-03T19:47:56.977Z,87.03
2022-10-03T19:50:14.019Z,86.74
2022-10-03T19:52:31.087Z,87.40
2022-10-03T19:54:48.105Z,88.12
2022-10-03T19:57:05.078Z,87.94
2022-10-03T19:59:22.304Z,88.49
2022-10-03T20:01:40.544Z,88.60
2022-10-03T20:03:59.366Z,88.10
2022-10-03T20:06:16.371Z,87.42
2022-10-03T20:08:33.735Z,87.07
2022-10-03T20:10:50.767Z,88.50
2022-10-03T20:13:08.043Z,88.29
2022-10-03T20:15:25.139Z,88.67
2022-10-03T20:17:42.100Z,88.91
2022-10-03T20:19:59.419Z,88.21
2022-10-03T20:22:16.397Z,87.60
2022-10-03T20:24:33.664Z,87.67
2022-10-03T20:26:51.948Z,87.50
2022-10-03T20:29:09.172Z,87.39
2022-10-03T20:31:26.393Z,87.19
2022-10-03T20:33:43.440Z,88.00
2022-10-03T20:36:00.616Z,87.72
2022-10-03T20:38:17.570Z,88.83
2022-10-03T20:40:34.659Z,88.31
2022-10-03T20:42:53.422Z,87.33
2022-10-03T20:45:13.906Z,88.53
2022-10-03T20:47:30.880Z,87.79
2022-10-03T20:49:47.700Z,87.29
2022-10-03T20:52:04.690Z,87.71
2022-10-03T20:54:22.482Z,88.75
2022-10-03T20:56:39.506Z,88.24
2022-10-03T20:58:56.522Z,87.61
2022-10-03T21:01:15.910Z,87.23
2022-10-03T21:03:32.973Z,87.15
2022-10-03T21:05:52.246Z,87.78
2022-10-03T21:08:09.301Z,87.67
2022-10-03T21:10:26.571Z,88.65
2022-10-03T21:12:43.598Z,88.39
2022-10-03T21:15:00.587Z,88.27
2022-10-03T21:17:20.727Z,88.59
2022-10-03T21:19:37.682Z,88.62
2022-10-03T21:21:54.896Z,88.61
2022-10-03T21:24:12.128Z,88.72
2022-10-03T21:26:30.405Z,89.28
2022-10-03T21:28:47.709Z,88.35
2022-10-03T21:31:05.610Z,88.03
2022-10-03T21:33:22.604Z,89.23
2022-10-03T21:35:39.636Z,89.30
2022-10-03T21:37:56.939Z,89.39
2022-10-03T21:40:15.281Z,89.08
2022-10-03T21:42:33.586Z,88.07
2022-10-03T21:44:50.674Z,89.17
2022-10-03T21:47:08.586Z,89.09
2022-10-03T21:49:26.747Z,89.42
2022-10-03T21:51:44.078Z,90.13
2022-10-03T21:54:00.934Z,89.16
2022-10-03T21:56:18.191Z,88.91
2022-10-03T21:58:35.156Z,89.90
2022-10-03T22:00:52.222Z,88.88
2022-10-03T22:03:09.459Z,88.98
2022-10-03T22:05:27.312Z,89.47
2022-10-03T22:07:44.269Z,90.05
2022-10-03T22:10:02.260Z,89.50
2022-10-03T22:12:22.087Z,91.30
2022-10-03T22:14:39.354Z,90.09
2022-10-03T22:16:56.595Z,90.83
2022-10-03T22:19:13.675Z,91.25
2022-10-03T22:21:30.580Z,90.40
2022-10-03T22:23:48.601Z,90.36
2022-10-03T22:26:06.825Z,90.24
2022-10-03T22:28:25.208Z,90.30
2022-10-03T22:30:43.575Z,90.66
2022-10-03T22:33:00.543Z,90.46
2022-10-03T22:35:17.474Z,90.09
2022-10-03T22:37:34.388Z,89.94
2022-10-03T22:39:51.274Z,89.57
2022-10-03T22:42:08.199Z,90.99
2022-10-03T22:44:25.152Z,89.66
2022-10-03T22:46:43.095Z,89.95
2022-10-03T22:49:00.495Z,89.84
2022-10-03T22:51:18.460Z,90.32
2022-10-03T22:53:36.675Z,90.55
2022-10-03T22:55:53.904Z,90.10
2022-10-03T22:58:10.917Z,89.59
2022-10-03T23:00:29.095Z,88.45
2022-10-03T23:02:46.503Z,89.18
2022-10-03T23:05:03.752Z,89.25
2022-10-03T23:07:20.729Z,89.23
2022-10-03T23:09:37.870Z,89.28
2022-10-03T23:11:55.115Z,88.52
2022-10-03T23:14:12.239Z,88.67
2022-10-03T23:16:29.204Z,89.22
2022-10-03T23:18:46.295Z,89.46
2022-10-03T23:21:03.291Z,90.16
2022-10-03T23:23:22.087Z,90.50
2022-10-03T23:25:39.379Z,89.50
2022-10-03T23:27:56.741Z,89.36
2022-10-03T23:30:14.043Z,90.07
2022-10-03T23:32:30.896Z,89.00
2022-10-03T23:34:47.860Z,89.51
2022-10-03T23:37:05.100Z,89.29
2022-10-03T23:39:22.393Z,89.31
2022-10-03T23:41:39.540Z,89.57
2022-10-03T23:43:56.907Z,89.13
2022-10-03T23:46:15.336Z,89.12
2022-10-03T23:48:32.650Z,89.59
2022-10-03T23:50:49.704Z,88.98
2022-10-03T23:53:07.220Z,89.28
2022-10-03T23:55:24.385Z,89.43
2022-10-03T23:57:41.400Z,88.82
2022-10-03T23:59:59.243Z,88.41
